»·PEaware :: N522L KPSP-KBLH

N522L :: KPSP-KBLH

FLIGHT INFORMATION

Flight Status: Arrived
Operator: Privately registered:
United States
More flights under this callsign
Pilot: Merv A. (1555)
Aircraft: Unknown
(LEG2)
More flights by this aircraft type
Origin: KPSP Palm Springs Intl
United States
Destination: KBLH Blythe
United States
More flights between these airports :: More routes between these airports
Route:
File this flight plan on PilotEdge
Remarks:
Altitude:
(Current/Filed)
7,500ft
Speed:
(Current/Filed)
245kts
Departed: 05-Jun-18 04:43 PM
Arrived: 05-Jun-18 05:19 PM
Distance/Time
Traveled:
90nm/0:36
Distance/Time
To Go:
Arrived

Flight Plot

Page will automatically refresh every two minutes.

Flight plan parsing failed; only flown route is shown


Map Options




Map Legend


Flown Route
Filed Route
Departure Airport
Arrival Airport
Navaid (VOR, NDB)
Fix

Horizontal Profiles

Position Reports

Time Latitude Longitude Heading Altitude Ground
Speed
05-Jun-18 16:21 33.822552 -116.497605 53 480ft 0kts
05-Jun-18 16:22 33.822552 -116.497605 53 480ft 0kts
05-Jun-18 16:23 33.822552 -116.497605 53 480ft 0kts
05-Jun-18 16:24 33.822552 -116.497605 53 480ft 0kts
05-Jun-18 16:25 33.822552 -116.497605 53 480ft 0kts
05-Jun-18 16:26 33.822552 -116.497605 53 480ft 0kts
05-Jun-18 16:27 33.822552 -116.497605 53 480ft 0kts
05-Jun-18 16:28 33.822552 -116.497605 53 480ft 0kts
05-Jun-18 16:29 33.822552 -116.497605 53 480ft 0kts
05-Jun-18 16:30 33.822552 -116.497605 53 480ft 0kts
05-Jun-18 16:31 33.822553 -116.497603 53 480ft 0kts
05-Jun-18 16:32 33.822554 -116.497602 53 480ft 0kts
05-Jun-18 16:33 33.822554 -116.497602 53 480ft 0kts
05-Jun-18 16:34 33.822554 -116.497602 53 480ft 0kts
05-Jun-18 16:35 33.822554 -116.497602 53 480ft 0kts
05-Jun-18 16:36 33.822554 -116.497602 53 480ft 0kts
05-Jun-18 16:37 33.822554 -116.497602 53 480ft 0kts
05-Jun-18 16:38 33.822554 -116.497602 53 480ft 0kts
05-Jun-18 16:39 33.822554 -116.497602 53 480ft 0kts
05-Jun-18 16:40 33.824280 -116.498795 322 480ft 11kts
05-Jun-18 16:41 33.824549 -116.499720 234 480ft 0kts
05-Jun-18 16:42 33.824548 -116.499722 234 480ft 0kts
05-Jun-18 16:43 33.840043 -116.513542 321 936ft 129kts
05-Jun-18 16:44 33.835869 -116.487018 144 1516ft 184kts
05-Jun-18 16:45 33.804242 -116.437437 99 2497ft 191kts
05-Jun-18 16:46 33.798160 -116.376403 99 4772ft 180kts
05-Jun-18 16:47 33.789022 -116.314537 105 6983ft 189kts
05-Jun-18 16:48 33.773424 -116.249165 112 7817ft 231kts
05-Jun-18 16:49 33.746180 -116.174846 117 7483ft 242kts
05-Jun-18 16:50 33.708893 -116.109760 131 7485ft 236kts
05-Jun-18 16:51 33.678105 -116.039607 111 7484ft 241kts
05-Jun-18 16:52 33.658717 -115.962862 95 7490ft 244kts
05-Jun-18 16:53 33.664537 -115.881236 85 7491ft 246kts
05-Jun-18 16:54 33.672579 -115.799614 85 7497ft 245kts
05-Jun-18 16:55 33.680586 -115.718174 85 7518ft 245kts
05-Jun-18 16:56 33.688583 -115.637027 85 7525ft 245kts
05-Jun-18 16:57 33.696584 -115.556065 85 7531ft 245kts
05-Jun-18 16:58 33.736576 -115.490692 41 6999ft 256kts
05-Jun-18 16:59 33.791224 -115.434379 41 6100ft 259kts
05-Jun-18 17:00 33.845653 -115.378686 41 5518ft 255kts
05-Jun-18 17:01 33.899935 -115.391487 277 5414ft 230kts
05-Jun-18 17:02 33.859232 -115.418292 161 4729ft 211kts
05-Jun-18 17:03 33.804103 -115.394041 161 4033ft 211kts
05-Jun-18 17:04 33.749826 -115.364295 151 3508ft 214kts
05-Jun-18 17:05 33.708020 -115.314806 131 3497ft 214kts
05-Jun-18 17:06 33.676555 -115.268373 130 3498ft 216kts
05-Jun-18 17:07 33.661734 -115.198446 98 3499ft 221kts
05-Jun-18 17:08 33.655530 -115.124911 99 3492ft 220kts
05-Jun-18 17:09 33.649419 -115.054951 98 3487ft 198kts
05-Jun-18 17:10 33.644438 -114.991268 98 3489ft 189kts
05-Jun-18 17:11 33.638426 -114.926750 103 2852ft 202kts
05-Jun-18 17:12 33.629395 -114.862163 101 2029ft 181kts
05-Jun-18 17:13 33.622599 -114.810895 95 1989ft 135kts
05-Jun-18 17:14 33.623265 -114.764621 96 1998ft 136kts
05-Jun-18 17:15 33.620622 -114.721504 99 1997ft 122kts
05-Jun-18 17:16 33.642360 -114.698849 1 1546ft 146kts
05-Jun-18 17:17 33.651371 -114.715206 200 930ft 105kts
05-Jun-18 17:18 33.625337 -114.716738 181 400ft 65kts
05-Jun-18 17:19 33.619227 -114.715861 89 400ft 0kts
05-Jun-18 17:20 33.617930 -114.715129 178 400ft 12kts
05-Jun-18 17:21 33.615322 -114.715105 153 400ft 10kts
05-Jun-18 17:22 33.614616 -114.712892 269 400ft 9kts
05-Jun-18 17:23 33.614320 -114.713744 180 400ft 0kts
05-Jun-18 17:24 33.614320 -114.713744 180 400ft 0kts
05-Jun-18 17:25 33.614320 -114.713744 180 400ft 0kts
05-Jun-18 17:26 33.614320 -114.713744 180 400ft 0kts

Navigation Log

Ident Type
Flight plan parsing failed, navigation log unavailable